Flugplatz Nordholz-Spieka

Für EDXN sind keine METAR/TAF Berichte vorhanden.
Es werden die Flugwettermeldungen vom Flugplatz Nordholz Airport in 0 km Entfernung angezeigt.

Bericht für ETMN

vom 25.10. um 15:20 UTC

Wind 8 kt aus 210°

Sichtweite 3000 m

schwacher Sprühregen

feuchter Dunst

bedeckt in 600 ft

Temperatur 10.0°C

Taupunkt 10.0°C

Luftfeuchtigkeit 100%

Luftdruck 1015 hPa

ETMN 251520Z 21008KT 3000 -DZ BR OVC006 10/10 Q1015 REDZ YLO GRN TEMPO YLO

Prognose für ETMN

vom 25.10. um 13:22 UTC

Zwischen 14:00 UTC und 23:00 UTC

Wind 8 kt aus 200°

Sichtweite 8000 m

schwacher Regen

aufgelockert bewölkt in 400 ft

bedeckt in 1000 ft


Zwischen 14:00 UTC und 23:00 UTC zeitweise

Wind 10 kt aus 210°

Sichtweite 3000 m

Regen

Sprühregen

bedeckt in 300 ft

TAF ETMN 251322Z 2514/2523 20008KT 8000 -RA SCT004 OVC010 TEMPO 2514/2523 21010KT 3000 RADZ OVC003
Impressum